Time;durP1;ratioP1;P1;durP2;ratioP2;P2;SDS_P1;SDS_P2;PMS_P1;PMS_P2;Temp;Humidity;BMP_temperature;BMP_pressure;BME280_temperature;BME280_humidity;BME280_pressure;Samples;Min_cycle;Max_cycle;Signal;HPM_P1;HPM_P2
2024/01/06 00:00:27;;;;;;;27.52;15.07;;;6.50;99.90;;;;;;5109213;28;20084;-95
2024/01/06 00:02:53;;;;;;;30.85;15.35;;;6.50;99.90;;;;;;5110411;28;20024;-93
2024/01/06 00:05:18;;;;;;;30.90;15.98;;;6.50;99.90;;;;;;5096256;28;20027;-95
2024/01/06 00:07:44;;;;;;;28.88;14.75;;;6.40;99.90;;;;;;5096072;28;20027;-94
2024/01/06 00:10:09;;;;;;;28.02;13.77;;;6.40;99.90;;;;;;5094752;28;20024;-95
2024/01/06 00:12:35;;;;;;;25.48;12.35;;;6.40;99.90;;;;;;5090528;28;20058;-95
2024/01/06 00:15:01;;;;;;;25.63;14.43;;;6.40;99.90;;;;;;5086832;28;20047;-95
2024/01/06 00:17:26;;;;;;;29.73;13.20;;;6.30;99.90;;;;;;5089408;28;20024;-94
2024/01/06 00:19:52;;;;;;;26.30;13.48;;;6.30;99.90;;;;;;5093798;28;20020;-96
2024/01/06 00:22:19;;;;;;;26.60;14.20;;;6.30;99.90;;;;;;5114045;28;20031;-94
2024/01/06 00:24:44;;;;;;;29.23;14.35;;;6.30;99.90;;;;;;5112458;28;20528;-95
2024/01/06 00:27:10;;;;;;;25.20;12.88;;;6.20;99.90;;;;;;5112791;28;20039;-95
2024/01/06 00:29:36;;;;;;;27.25;13.85;;;6.20;99.90;;;;;;5094911;28;20534;-95
2024/01/06 00:32:01;;;;;;;31.27;15.70;;;6.20;99.90;;;;;;5095787;28;20062;-96
2024/01/06 00:34:27;;;;;;;24.85;12.80;;;6.10;99.90;;;;;;5104023;28;20487;-95
2024/01/06 00:36:53;;;;;;;25.58;13.77;;;6.20;99.90;;;;;;5110701;28;20043;-94
2024/01/06 00:39:20;;;;;;;28.55;14.15;;;6.10;99.90;;;;;;5082852;28;20035;-96
2024/01/06 00:41:46;;;;;;;26.90;13.73;;;6.10;99.90;;;;;;5096640;28;20032;-96
2024/01/06 00:44:11;;;;;;;26.65;14.18;;;6.10;99.90;;;;;;5097445;28;20089;-95
2024/01/06 00:46:37;;;;;;;29.48;14.93;;;6.10;99.90;;;;;;5092400;28;20050;-95
2024/01/06 00:49:03;;;;;;;27.70;13.73;;;6.10;99.90;;;;;;5077689;28;20115;-95
2024/01/06 00:51:29;;;;;;;27.23;13.82;;;6.10;99.90;;;;;;5075983;28;20131;-94
2024/01/06 00:53:55;;;;;;;28.50;13.73;;;6.10;99.90;;;;;;5084104;28;20059;-94
2024/01/06 00:56:20;;;;;;;25.63;13.30;;;6.10;99.90;;;;;;5108664;28;20024;-95
2024/01/06 00:58:46;;;;;;;29.08;14.43;;;6.00;99.90;;;;;;5092222;28;20024;-95
2024/01/06 01:01:11;;;;;;;26.02;13.98;;;6.00;99.90;;;;;;5083363;28;20060;-93
2024/01/06 01:03:37;;;;;;;28.23;13.63;;;6.00;99.90;;;;;;5089870;28;20080;-93
2024/01/06 01:06:03;;;;;;;29.52;14.02;;;6.00;99.90;;;;;;5096275;28;20118;-95
2024/01/06 01:08:28;;;;;;;26.88;13.68;;;5.90;99.90;;;;;;5093529;28;20031;-96
2024/01/06 01:10:54;;;;;;;25.55;12.18;;;5.80;99.90;;;;;;5091074;28;20039;-95
2024/01/06 01:13:19;;;;;;;26.40;12.15;;;5.80;99.90;;;;;;5091028;28;20032;-95
2024/01/06 01:15:45;;;;;;;24.88;11.57;;;5.80;99.90;;;;;;5076527;28;20063;-95
2024/01/06 01:18:10;;;;;;;23.55;11.50;;;5.80;99.90;;;;;;5082594;28;20028;-94
2024/01/06 01:20:36;;;;;;;23.10;11.27;;;5.70;99.90;;;;;;5076350;28;20077;-93
2024/01/06 01:23:02;;;;;;;21.05;9.90;;;5.70;99.90;;;;;;5075378;28;20129;-95
2024/01/06 01:25:27;;;;;;;20.63;10.65;;;5.70;99.90;;;;;;5088696;28;20488;-94
2024/01/06 01:27:53;;;;;;;22.52;10.90;;;5.70;99.90;;;;;;5085647;28;20024;-95
2024/01/06 01:30:19;;;;;;;21.23;10.98;;;5.60;99.90;;;;;;5086325;28;20458;-95
2024/01/06 01:32:44;;;;;;;18.80;9.73;;;5.60;99.90;;;;;;5087168;28;20028;-94
2024/01/06 01:35:10;;;;;;;17.85;9.85;;;5.60;99.90;;;;;;5091354;28;20072;-94
2024/01/06 01:37:36;;;;;;;17.98;9.52;;;5.60;99.90;;;;;;5096000;28;20035;-94
2024/01/06 01:40:01;;;;;;;16.58;9.23;;;5.60;99.90;;;;;;5111249;28;20024;-94
2024/01/06 01:42:27;;;;;;;17.38;9.55;;;5.60;99.90;;;;;;5100077;28;20111;-93
2024/01/06 01:44:52;;;;;;;20.50;11.10;;;5.60;99.90;;;;;;5102874;28;20098;-93
2024/01/06 01:47:18;;;;;;;18.75;10.27;;;5.50;99.90;;;;;;5090028;28;20092;-94
2024/01/06 01:49:46;;;;;;;19.48;10.52;;;5.50;99.90;;;;;;5085440;28;20476;-94
2024/01/06 01:52:13;;;;;;;19.98;10.00;;;5.50;99.90;;;;;;5099292;28;20063;-94
2024/01/06 01:54:40;;;;;;;15.23;8.88;;;5.50;99.90;;;;;;5083943;28;20484;-95
2024/01/06 01:57:06;;;;;;;13.73;8.20;;;5.40;99.90;;;;;;5112319;28;20028;-93
2024/01/06 01:59:31;;;;;;;15.85;8.90;;;5.40;99.90;;;;;;5099872;28;20028;-95
2024/01/06 02:01:57;;;;;;;14.68;8.55;;;5.40;99.90;;;;;;5108022;28;20458;-94
2024/01/06 02:04:22;;;;;;;14.73;8.40;;;5.40;99.90;;;;;;5093389;28;20027;-94
2024/01/06 02:06:48;;;;;;;14.68;8.23;;;5.40;99.90;;;;;;5108434;28;20028;-94
2024/01/06 02:09:13;;;;;;;14.05;8.10;;;5.30;99.90;;;;;;5077151;28;20028;-93
2024/01/06 02:11:39;;;;;;;15.07;7.55;;;5.30;99.90;;;;;;5093713;28;20410;-95
2024/01/06 02:14:05;;;;;;;12.57;7.43;;;5.30;99.90;;;;;;5080957;28;20466;-95
2024/01/06 02:16:30;;;;;;;18.48;8.57;;;5.30;99.90;;;;;;5087614;28;20073;-95
2024/01/06 02:18:57;;;;;;;14.63;8.13;;;5.30;99.90;;;;;;5083491;28;20035;-95
2024/01/06 02:21:23;;;;;;;13.20;7.18;;;5.30;99.90;;;;;;5078779;28;20028;-95
2024/01/06 02:23:49;;;;;;;14.10;7.78;;;5.30;99.90;;;;;;5083943;28;20051;-94
2024/01/06 02:26:15;;;;;;;13.00;7.43;;;5.30;99.90;;;;;;5083433;28;20099;-94
2024/01/06 02:28:41;;;;;;;13.23;7.05;;;5.30;99.90;;;;;;5101485;28;20481;-94
2024/01/06 02:31:07;;;;;;;15.13;7.85;;;5.30;99.90;;;;;;5091301;28;20047;-94
2024/01/06 02:33:32;;;;;;;13.05;7.28;;;5.30;99.90;;;;;;5084309;28;20020;-94
2024/01/06 02:35:58;;;;;;;16.88;8.82;;;5.30;99.90;;;;;;5091784;28;20119;-95
2024/01/06 02:38:23;;;;;;;14.75;8.05;;;5.30;99.90;;;;;;5085386;28;20028;-94
2024/01/06 02:40:49;;;;;;;18.95;9.40;;;5.30;99.90;;;;;;5088702;28;20368;-94
2024/01/06 02:43:14;;;;;;;14.52;7.90;;;5.30;99.90;;;;;;5091642;28;20020;-95
2024/01/06 02:45:40;;;;;;;18.50;9.68;;;5.30;99.90;;;;;;5089348;28;20491;-94
2024/01/06 02:48:06;;;;;;;20.60;10.68;;;5.20;99.90;;;;;;5090149;28;20059;-95
2024/01/06 02:50:31;;;;;;;21.13;11.93;;;5.20;99.90;;;;;;5088257;28;20039;-95
2024/01/06 02:52:57;;;;;;;22.25;12.80;;;5.20;99.90;;;;;;5093823;28;20023;-94
2024/01/06 02:55:22;;;;;;;22.55;12.80;;;5.20;99.90;;;;;;5086226;28;20341;-92
2024/01/06 02:57:48;;;;;;;21.60;13.07;;;5.10;99.90;;;;;;5111364;28;20088;-94
2024/01/06 03:00:14;;;;;;;20.88;11.57;;;5.10;99.90;;;;;;5106939;28;20034;-93
2024/01/06 03:02:42;;;;;;;23.25;12.57;;;5.00;99.90;;;;;;5096425;28;20051;-94
2024/01/06 03:05:09;;;;;;;22.83;12.73;;;5.00;99.90;;;;;;5103237;28;20552;-95
2024/01/06 03:07:34;;;;;;;22.58;11.88;;;4.90;99.90;;;;;;5093564;28;20027;-94
2024/01/06 03:10:00;;;;;;;24.10;12.20;;;4.90;99.90;;;;;;5111754;28;20470;-93
2024/01/06 03:12:25;;;;;;;22.73;12.63;;;4.90;99.90;;;;;;5092347;28;20031;-93
2024/01/06 03:14:51;;;;;;;22.73;11.63;;;4.90;99.90;;;;;;5107100;28;20444;-93
2024/01/06 03:17:17;;;;;;;19.13;10.65;;;4.90;99.90;;;;;;5098415;28;20035;-95
2024/01/06 03:19:43;;;;;;;23.58;10.65;;;4.80;99.90;;;;;;5103208;28;20028;-92
2024/01/06 03:22:09;;;;;;;21.38;10.80;;;4.80;99.90;;;;;;5090894;28;20067;-95
2024/01/06 03:24:34;;;;;;;22.73;11.00;;;4.80;99.90;;;;;;5089918;28;20043;-94
2024/01/06 03:27:00;;;;;;;23.90;12.02;;;4.80;99.90;;;;;;5097267;28;20031;-94
2024/01/06 03:29:25;;;;;;;23.98;11.95;;;4.80;99.90;;;;;;5083195;28;20035;-93
2024/01/06 03:31:51;;;;;;;20.73;11.23;;;4.70;99.90;;;;;;5091958;28;20437;-95
2024/01/06 03:34:17;;;;;;;21.48;9.93;;;4.70;99.90;;;;;;5095377;28;20062;-93
2024/01/06 03:36:42;;;;;;;22.50;11.63;;;4.70;99.90;;;;;;5092343;28;20024;-94
2024/01/06 03:39:08;;;;;;;23.17;13.18;;;4.80;99.90;;;;;;5111940;28;20498;-94
2024/01/06 03:41:33;;;;;;;20.85;11.38;;;4.70;99.90;;;;;;5099033;28;20016;-93
2024/01/06 03:43:59;;;;;;;19.27;10.70;;;4.70;99.90;;;;;;5094174;28;20097;-94
2024/01/06 03:46:25;;;;;;;21.05;11.90;;;4.80;99.90;;;;;;5096102;28;20036;-94
2024/01/06 03:48:51;;;;;;;22.38;11.98;;;4.70;99.90;;;;;;5083691;28;20400;-94
2024/01/06 03:51:16;;;;;;;20.50;12.00;;;4.70;99.90;;;;;;5090062;28;20045;-94
2024/01/06 03:53:42;;;;;;;23.02;13.02;;;4.80;99.90;;;;;;5094898;28;20023;-94
2024/01/06 03:56:08;;;;;;;21.13;11.02;;;4.80;99.90;;;;;;5092709;28;20546;-94
2024/01/06 03:58:34;;;;;;;23.10;12.45;;;4.80;99.90;;;;;;5092512;28;20024;-94
2024/01/06 04:00:59;;;;;;;18.05;10.77;;;4.70;99.90;;;;;;5107490;28;20030;-95
2024/01/06 04:03:25;;;;;;;20.60;11.73;;;4.70;99.90;;;;;;5095313;28;20395;-94
2024/01/06 04:05:51;;;;;;;19.52;11.80;;;4.80;99.90;;;;;;5114159;28;20042;-95
2024/01/06 04:08:17;;;;;;;20.83;10.98;;;4.80;99.90;;;;;;5096222;28;20055;-93
2024/01/06 04:10:43;;;;;;;21.23;12.07;;;4.80;99.90;;;;;;5092871;28;20028;-94
2024/01/06 04:13:09;;;;;;;23.17;12.15;;;4.80;99.90;;;;;;5110767;28;20498;-94
2024/01/06 04:15:34;;;;;;;22.42;11.70;;;4.80;99.90;;;;;;5106544;28;20042;-94
2024/01/06 04:18:04;;;;;;;21.85;12.27;;;4.70;99.90;;;;;;5099546;28;20024;-92
2024/01/06 04:20:31;;;;;;;21.13;11.48;;;4.80;99.90;;;;;;5078456;28;20509;-92
2024/01/06 04:22:56;;;;;;;22.05;11.80;;;4.70;99.90;;;;;;5097979;28;20027;-94
2024/01/06 04:25:22;;;;;;;21.90;12.45;;;4.70;99.90;;;;;;5099859;28;20118;-94
2024/01/06 04:27:48;;;;;;;20.52;11.98;;;4.70;99.90;;;;;;5108896;28;20035;-94
2024/01/06 04:30:14;;;;;;;22.20;12.38;;;4.70;99.90;;;;;;5095206;28;20497;-93
2024/01/06 04:32:40;;;;;;;25.15;13.23;;;4.70;99.90;;;;;;5093079;28;20115;-95
2024/01/06 04:35:06;;;;;;;21.60;11.35;;;4.70;99.90;;;;;;5089773;28;20065;-93
2024/01/06 04:37:32;;;;;;;23.15;12.73;;;4.70;99.90;;;;;;5091349;28;20081;-93
2024/01/06 04:39:58;;;;;;;21.52;11.80;;;4.80;99.90;;;;;;5090755;28;20485;-95
2024/01/06 04:42:23;;;;;;;22.02;11.85;;;4.70;99.90;;;;;;5086292;28;20096;-93
2024/01/06 04:44:50;;;;;;;25.42;12.63;;;4.80;99.90;;;;;;5086613;28;20054;-94
2024/01/06 04:47:16;;;;;;;26.05;13.45;;;4.70;99.90;;;;;;5092629;28;20031;-94
2024/01/06 04:49:41;;;;;;;25.05;13.75;;;4.70;99.90;;;;;;5088407;28;20024;-91
2024/01/06 04:52:07;;;;;;;26.77;13.38;;;4.70;99.90;;;;;;5072651;28;20054;-94
2024/01/06 04:54:32;;;;;;;25.60;13.68;;;4.80;99.90;;;;;;5084336;28;20051;-95
2024/01/06 04:56:59;;;;;;;27.98;15.23;;;4.70;99.90;;;;;;5081478;28;20120;-93
2024/01/06 04:59:24;;;;;;;29.95;15.43;;;4.70;99.90;;;;;;5082829;28;20125;-93
2024/01/06 05:01:51;;;;;;;27.88;14.43;;;4.70;99.90;;;;;;5090629;28;20024;-93
2024/01/06 05:04:17;;;;;;;29.80;16.08;;;4.70;99.90;;;;;;5090301;28;20031;-93
2024/01/06 05:06:43;;;;;;;28.50;14.07;;;4.70;99.90;;;;;;5086911;28;20033;-93
2024/01/06 05:09:08;;;;;;;27.05;14.45;;;4.60;99.90;;;;;;5085330;28;20059;-93
2024/01/06 05:11:34;;;;;;;30.20;14.38;;;4.60;99.90;;;;;;5087976;28;20480;-94
2024/01/06 05:13:59;;;;;;;28.38;14.18;;;4.60;99.90;;;;;;5093448;28;20020;-93
2024/01/06 05:16:25;;;;;;;27.55;14.48;;;4.60;99.90;;;;;;5090304;28;20051;-93
2024/01/06 05:18:50;;;;;;;23.90;12.70;;;4.60;99.90;;;;;;5090412;28;20452;-94
2024/01/06 05:21:16;;;;;;;26.67;14.25;;;4.60;99.90;;;;;;5082236;28;20074;-93
2024/01/06 05:23:42;;;;;;;27.45;14.35;;;4.50;99.90;;;;;;5089629;28;20472;-95
2024/01/06 05:26:07;;;;;;;30.55;15.18;;;4.50;99.90;;;;;;5091152;28;20031;-93
2024/01/06 05:28:33;;;;;;;27.92;14.32;;;4.50;99.90;;;;;;5078928;28;20468;-93
2024/01/06 05:30:58;;;;;;;25.45;13.95;;;4.50;99.90;;;;;;5086368;28;20035;-94
2024/01/06 05:33:24;;;;;;;26.05;13.13;;;4.50;99.90;;;;;;5088508;28;20028;-94
2024/01/06 05:35:49;;;;;;;25.38;12.93;;;4.40;99.90;;;;;;5084443;28;20024;-93
2024/01/06 05:38:17;;;;;;;28.38;13.50;;;4.50;99.90;;;;;;5086660;28;20024;-93
2024/01/06 05:40:42;;;;;;;23.58;11.85;;;4.50;99.90;;;;;;5089052;28;20024;-93
2024/01/06 05:43:08;;;;;;;26.00;12.45;;;4.50;99.90;;;;;;5091146;28;20024;-93
2024/01/06 05:45:33;;;;;;;20.98;10.93;;;4.50;99.90;;;;;;5105396;28;20087;-94
2024/01/06 05:47:59;;;;;;;20.33;10.27;;;4.50;99.90;;;;;;5089551;28;20081;-93
2024/01/06 05:50:25;;;;;;;21.13;10.38;;;4.50;99.90;;;;;;5086864;28;20040;-93
2024/01/06 05:52:51;;;;;;;17.55;8.95;;;4.50;99.90;;;;;;5107219;28;20021;-96
2024/01/06 05:55:17;;;;;;;15.55;8.43;;;4.40;99.90;;;;;;5089385;28;20039;-93
2024/01/06 05:57:43;;;;;;;15.13;7.85;;;4.30;99.90;;;;;;5096630;28;20019;-93
2024/01/06 06:00:10;;;;;;;15.80;7.97;;;4.30;99.90;;;;;;5101250;28;20066;-93
2024/01/06 06:02:35;;;;;;;19.88;8.90;;;4.20;99.90;;;;;;5082782;28;20640;-93
2024/01/06 06:05:01;;;;;;;15.00;8.40;;;4.20;99.90;;;;;;5087895;28;20028;-92
2024/01/06 06:07:26;;;;;;;16.95;8.48;;;4.20;99.90;;;;;;5089059;28;20495;-92
2024/01/06 06:09:53;;;;;;;16.27;7.55;;;4.10;99.90;;;;;;5088826;28;20024;-93
2024/01/06 06:12:18;;;;;;;17.65;8.98;;;4.10;99.90;;;;;;5085973;28;20040;-92
2024/01/06 06:14:44;;;;;;;15.18;8.18;;;4.10;99.90;;;;;;5092320;28;20023;-92
2024/01/06 06:17:09;;;;;;;17.30;9.45;;;4.10;99.90;;;;;;5106834;28;20112;-93
2024/01/06 06:19:35;;;;;;;19.58;8.75;;;4.10;99.90;;;;;;5095335;28;20042;-93
2024/01/06 06:22:01;;;;;;;18.92;9.32;;;4.10;99.90;;;;;;5088729;28;20384;-94
2024/01/06 06:24:26;;;;;;;20.95;10.05;;;4.10;99.90;;;;;;5098687;28;20023;-93
2024/01/06 06:26:52;;;;;;;20.15;10.88;;;4.10;99.90;;;;;;5094538;28;20027;-92
2024/01/06 06:29:17;;;;;;;17.92;9.15;;;4.10;99.90;;;;;;5099368;28;20135;-93
2024/01/06 06:31:44;;;;;;;21.77;11.02;;;4.10;99.90;;;;;;5092436;28;20479;-94
2024/01/06 06:34:10;;;;;;;20.50;11.52;;;4.10;99.90;;;;;;5096690;28;20020;-93
2024/01/06 06:36:36;;;;;;;18.25;10.27;;;4.00;99.90;;;;;;5091828;28;20051;-94
2024/01/06 06:39:04;;;;;;;18.45;10.40;;;4.00;99.90;;;;;;5094509;28;20027;-94
2024/01/06 06:41:29;;;;;;;20.23;10.30;;;4.00;99.90;;;;;;5098293;28;20035;-94
2024/01/06 06:43:57;;;;;;;20.17;11.60;;;4.00;99.90;;;;;;5087168;28;20032;-94
2024/01/06 06:46:23;;;;;;;19.30;10.93;;;4.00;99.90;;;;;;5094352;28;20019;-93
2024/01/06 06:48:49;;;;;;;18.92;11.13;;;4.00;99.90;;;;;;5096483;28;20038;-92
2024/01/06 06:51:14;;;;;;;19.90;11.30;;;3.90;99.90;;;;;;5098258;28;20036;-93
2024/01/06 06:53:40;;;;;;;18.33;10.98;;;3.90;99.90;;;;;;5093695;28;20016;-93
2024/01/06 06:56:06;;;;;;;16.88;10.88;;;3.80;99.90;;;;;;5099458;28;20391;-93
2024/01/06 06:58:33;;;;;;;18.83;11.52;;;3.90;99.90;;;;;;5086728;28;20023;-94
2024/01/06 07:00:58;;;;;;;18.38;11.80;;;3.80;99.90;;;;;;5095546;28;20118;-91
2024/01/06 07:03:24;;;;;;;18.20;10.50;;;3.80;99.90;;;;;;5096544;28;20062;-91
2024/01/06 07:05:50;;;;;;;15.48;10.23;;;3.80;99.90;;;;;;5091734;28;20031;-93
2024/01/06 07:08:15;;;;;;;17.60;10.75;;;3.80;99.90;;;;;;5097250;28;20016;-91
2024/01/06 07:10:41;;;;;;;18.05;11.35;;;3.70;99.90;;;;;;5096821;28;20035;-93
2024/01/06 07:13:07;;;;;;;21.30;10.65;;;3.60;99.90;;;;;;5096533;28;20099;-92
2024/01/06 07:15:32;;;;;;;19.00;11.55;;;3.60;99.90;;;;;;5085587;28;20023;-93
2024/01/06 07:17:58;;;;;;;20.35;12.10;;;3.60;99.90;;;;;;5093061;28;20028;-93
2024/01/06 07:20:23;;;;;;;18.08;11.75;;;3.60;99.90;;;;;;5091863;28;20391;-92
2024/01/06 07:22:49;;;;;;;19.10;11.48;;;3.60;99.90;;;;;;5088293;28;20092;-92
2024/01/06 07:25:15;;;;;;;21.23;12.32;;;3.60;99.90;;;;;;5089681;28;20084;-92
2024/01/06 07:27:40;;;;;;;20.70;12.73;;;3.60;99.90;;;;;;5085047;28;20020;-94
2024/01/06 07:30:09;;;;;;;18.25;11.85;;;3.60;99.90;;;;;;5088251;28;20788;-93
2024/01/06 07:32:35;;;;;;;21.20;11.63;;;3.60;99.90;;;;;;5092081;28;20027;-91
2024/01/06 07:35:00;;;;;;;19.50;12.48;;;3.60;99.90;;;;;;5096679;28;20031;-94
2024/01/06 07:37:26;;;;;;;25.40;13.20;;;3.50;99.90;;;;;;5098393;28;20028;-95
2024/01/06 07:39:51;;;;;;;20.35;12.98;;;3.50;99.90;;;;;;5092387;28;20083;-91
2024/01/06 07:42:18;;;;;;;20.58;12.48;;;3.50;99.90;;;;;;5093005;28;20392;-93
2024/01/06 07:44:44;;;;;;;21.73;12.60;;;3.50;99.90;;;;;;5090618;28;20132;-92
2024/01/06 07:47:10;;;;;;;22.20;13.25;;;3.50;99.90;;;;;;5088146;28;20035;-93
2024/01/06 07:49:35;;;;;;;20.17;12.13;;;3.50;99.90;;;;;;5081236;28;20891;-93
2024/01/06 07:52:01;;;;;;;19.52;12.32;;;3.50;99.90;;;;;;5085844;28;20024;-92
2024/01/06 07:54:27;;;;;;;20.27;11.70;;;3.50;99.90;;;;;;5079006;28;20024;-92
2024/01/06 07:56:53;;;;;;;23.00;12.70;;;3.50;99.90;;;;;;5095280;28;20043;-93
2024/01/06 07:59:18;;;;;;;20.05;12.23;;;3.50;99.90;;;;;;5098273;28;20024;-92
2024/01/06 08:01:44;;;;;;;21.50;12.45;;;3.50;99.90;;;;;;5091170;28;20395;-92
2024/01/06 08:04:09;;;;;;;18.90;11.32;;;3.50;99.90;;;;;;5098471;28;20015;-93
2024/01/06 08:06:35;;;;;;;20.00;11.65;;;3.50;99.90;;;;;;5095206;28;20374;-93
2024/01/06 08:09:01;;;;;;;23.67;11.63;;;3.50;99.90;;;;;;5082107;28;20084;-92
2024/01/06 08:11:27;;;;;;;24.60;12.15;;;3.50;99.90;;;;;;5097846;28;20037;-94
2024/01/06 08:13:53;;;;;;;18.77;11.10;;;3.50;99.90;;;;;;5094914;28;20020;-92
2024/01/06 08:16:19;;;;;;;20.27;11.98;;;3.50;99.90;;;;;;5090910;28;20050;-93
2024/01/06 08:18:45;;;;;;;20.33;11.38;;;3.50;99.90;;;;;;5094194;28;20024;-92
2024/01/06 08:21:11;;;;;;;23.45;12.18;;;3.50;99.90;;;;;;5082900;28;20035;-92
2024/01/06 08:23:36;;;;;;;23.42;11.80;;;3.50;99.90;;;;;;5085590;28;20058;-92
2024/01/06 08:26:03;;;;;;;20.40;11.25;;;3.50;99.90;;;;;;5098492;28;20036;-93
2024/01/06 08:28:29;;;;;;;17.77;11.07;;;3.50;99.90;;;;;;5092173;28;20028;-92
2024/01/06 08:30:55;;;;;;;18.80;10.25;;;3.60;99.90;;;;;;5090261;28;20180;-92
2024/01/06 08:33:21;;;;;;;20.65;11.40;;;3.60;99.90;;;;;;5087926;28;20047;-91
2024/01/06 08:35:46;;;;;;;20.27;11.75;;;3.60;99.90;;;;;;5087258;28;20039;-92
2024/01/06 08:38:12;;;;;;;20.25;11.23;;;3.60;99.90;;;;;;5096815;28;20073;-92
2024/01/06 08:40:37;;;;;;;19.40;11.10;;;3.60;99.90;;;;;;5095351;28;20031;-91
2024/01/06 08:43:03;;;;;;;19.75;11.02;;;3.60;99.90;;;;;;5094809;28;20113;-92
2024/01/06 08:45:29;;;;;;;23.77;12.25;;;3.60;99.90;;;;;;5084123;28;20040;-92
2024/01/06 08:47:55;;;;;;;21.17;12.02;;;3.60;99.90;;;;;;5092921;28;20015;-93
2024/01/06 08:50:20;;;;;;;21.75;11.07;;;3.60;99.90;;;;;;5097585;28;20016;-92
2024/01/06 08:52:46;;;;;;;20.52;11.45;;;3.60;99.90;;;;;;5091421;28;20028;-93
2024/01/06 08:55:11;;;;;;;20.75;12.27;;;3.60;99.90;;;;;;5090924;28;20131;-92
2024/01/06 08:57:37;;;;;;;20.20;11.85;;;3.60;99.90;;;;;;5110576;28;20038;-93
2024/01/06 09:00:04;;;;;;;21.00;11.20;;;3.60;99.90;;;;;;5087969;28;20026;-93
2024/01/06 09:02:30;;;;;;;24.00;12.23;;;3.60;99.90;;;;;;5095331;28;20016;-93
2024/01/06 09:04:55;;;;;;;21.63;11.82;;;3.60;99.90;;;;;;5094637;28;20072;-94
2024/01/06 09:07:21;;;;;;;21.52;11.18;;;3.60;99.90;;;;;;5084855;28;20115;-94
2024/01/06 09:09:46;;;;;;;24.15;12.63;;;3.60;99.90;;;;;;5091566;28;20448;-93
2024/01/06 09:12:12;;;;;;;23.30;13.02;;;3.60;99.90;;;;;;5088244;28;20077;-93
2024/01/06 09:14:37;;;;;;;22.02;12.13;;;3.60;99.90;;;;;;5084782;28;20081;-95
2024/01/06 09:17:04;;;;;;;25.27;12.25;;;3.60;99.90;;;;;;5091336;28;20038;-95
2024/01/06 09:19:30;;;;;;;21.40;11.95;;;3.60;99.90;;;;;;5093003;28;20028;-92
2024/01/06 09:21:56;;;;;;;24.90;13.07;;;3.60;99.90;;;;;;5091743;28;20041;-93
2024/01/06 09:24:22;;;;;;;24.95;13.00;;;3.60;99.90;;;;;;5088864;28;20494;-93
2024/01/06 09:26:50;;;;;;;21.67;12.25;;;3.60;99.90;;;;;;5085078;28;20067;-93
2024/01/06 09:29:16;;;;;;;26.45;13.77;;;3.50;99.90;;;;;;5090883;28;20031;-93
2024/01/06 09:31:41;;;;;;;25.50;12.45;;;3.60;99.90;;;;;;5093700;28;20400;-93
2024/01/06 09:34:10;;;;;;;22.77;12.27;;;3.60;99.90;;;;;;5109493;28;20028;-93
2024/01/06 09:36:35;;;;;;;21.23;11.60;;;3.60;99.90;;;;;;5086044;28;20024;-91
2024/01/06 09:39:01;;;;;;;22.50;12.68;;;3.60;99.90;;;;;;5092568;28;20020;-95
2024/01/06 09:41:27;;;;;;;25.55;11.80;;;3.50;99.90;;;;;;5097597;28;20028;-95
2024/01/06 09:43:52;;;;;;;18.40;10.57;;;3.60;99.90;;;;;;5083520;28;20025;-94
2024/01/06 09:46:27;;;;;;;24.88;11.95;;;3.60;99.90;;;;;;5095422;28;20407;-93
2024/01/06 09:48:54;;;;;;;19.52;10.57;;;3.60;99.90;;;;;;5096898;28;20078;-93
2024/01/06 09:51:21;;;;;;;20.35;10.30;;;3.60;99.90;;;;;;5111743;28;20032;-93
2024/01/06 09:53:57;;;;;;;21.98;12.80;;;3.70;99.90;;;;;;5097585;28;20080;-93
2024/01/06 09:56:24;;;;;;;20.55;10.63;;;3.70;99.90;;;;;;5099014;28;20027;-93
2024/01/06 09:58:50;;;;;;;19.35;10.80;;;3.70;99.90;;;;;;5098391;28;20024;-93
2024/01/06 10:01:18;;;;;;;19.00;10.15;;;3.70;99.90;;;;;;5094796;28;20540;-93
2024/01/06 10:03:45;;;;;;;19.73;10.88;;;3.80;99.90;;;;;;5094443;28;20023;-94
2024/01/06 10:06:11;;;;;;;19.25;11.52;;;3.80;99.90;;;;;;5097349;28;20763;-93
2024/01/06 10:08:40;;;;;;;22.92;11.55;;;3.80;99.90;;;;;;5093637;28;20055;-93
2024/01/06 10:11:07;;;;;;;20.42;11.35;;;3.80;99.90;;;;;;5115607;28;20487;-91
2024/01/06 10:13:33;;;;;;;18.92;10.73;;;3.80;99.90;;;;;;5086196;28;20498;-93
2024/01/06 10:15:58;;;;;;;21.35;11.82;;;3.80;99.90;;;;;;5095777;28;20023;-92
2024/01/06 10:18:26;;;;;;;21.55;11.45;;;3.80;99.90;;;;;;5096412;28;20046;-93
2024/01/06 10:20:53;;;;;;;20.08;12.32;;;3.80;99.90;;;;;;5101185;28;20106;-94
2024/01/06 10:23:19;;;;;;;22.35;11.70;;;3.70;99.90;;;;;;5113642;28;20043;-94
2024/01/06 10:25:44;;;;;;;16.77;10.02;;;3.80;99.90;;;;;;5101046;28;20027;-93
2024/01/06 10:28:16;;;;;;;20.85;12.35;;;3.80;99.90;;;;;;5083851;28;20027;-93
2024/01/06 10:30:42;;;;;;;21.58;12.02;;;3.80;99.90;;;;;;5099877;28;20036;-91
2024/01/06 10:33:10;;;;;;;21.38;11.98;;;3.80;99.90;;;;;;5095047;28;20385;-91
2024/01/06 10:35:36;;;;;;;20.98;11.95;;;3.80;99.90;;;;;;5100722;28;20046;-92
2024/01/06 10:38:03;;;;;;;20.23;11.05;;;3.70;99.90;;;;;;5099782;28;20547;-92
2024/01/06 10:40:29;;;;;;;18.35;10.85;;;3.70;99.90;;;;;;5094887;28;20039;-92
2024/01/06 10:42:57;;;;;;;21.45;11.68;;;3.70;99.90;;;;;;5086124;28;20027;-91
2024/01/06 10:45:23;;;;;;;18.40;10.68;;;3.70;99.90;;;;;;5095778;28;20112;-92
2024/01/06 10:47:49;;;;;;;18.20;10.45;;;3.70;99.90;;;;;;5097412;28;20028;-91
2024/01/06 10:50:17;;;;;;;19.60;10.98;;;3.80;99.90;;;;;;5089248;28;20076;-92
2024/01/06 10:52:43;;;;;;;16.63;9.82;;;3.80;99.90;;;;;;5094340;28;20547;-92
2024/01/06 10:55:09;;;;;;;16.95;10.23;;;3.80;99.90;;;;;;5091429;28;20124;-92
2024/01/06 10:57:37;;;;;;;16.73;11.13;;;3.80;99.90;;;;;;5097666;28;20038;-90
2024/01/06 11:00:05;;;;;;;17.77;10.27;;;3.80;99.90;;;;;;5113636;28;20054;-90
2024/01/06 11:02:31;;;;;;;16.60;10.38;;;3.70;99.90;;;;;;5100634;28;20023;-90
2024/01/06 11:04:57;;;;;;;14.13;9.00;;;3.70;99.90;;;;;;5090645;28;20054;-91
2024/01/06 11:07:25;;;;;;;15.25;9.88;;;3.70;99.90;;;;;;5095770;28;20028;-91
2024/01/06 11:10:18;;;;;;;16.80;9.60;;;3.70;99.90;;;;;;5106371;28;20016;-91
2024/01/06 11:12:44;;;;;;;17.58;10.80;;;3.70;99.90;;;;;;5106097;28;20116;-92
2024/01/06 11:15:09;;;;;;;16.63;9.88;;;3.70;99.90;;;;;;5110051;28;20023;-92
2024/01/06 11:17:55;;;;;;;20.30;11.48;;;3.70;99.90;;;;;;5090508;28;20027;-91
2024/01/06 11:20:27;;;;;;;16.10;10.32;;;3.70;99.90;;;;;;5091426;28;20535;-91
2024/01/06 11:22:53;;;;;;;15.63;10.10;;;3.70;99.90;;;;;;5086564;28;20043;-91
2024/01/06 11:25:20;;;;;;;16.25;9.77;;;3.70;99.90;;;;;;5101532;28;20106;-92
2024/01/06 11:27:48;;;;;;;17.08;10.90;;;3.70;99.90;;;;;;5096750;28;20076;-91
2024/01/06 11:30:28;;;;;;;17.55;10.95;;;3.60;99.90;;;;;;5096222;28;20032;-91
2024/01/06 11:32:58;;;;;;;16.38;10.90;;;3.70;99.90;;;;;;5090964;28;20454;-91
2024/01/06 11:35:26;;;;;;;16.85;11.02;;;3.70;99.90;;;;;;5094217;28;20104;-91
2024/01/06 11:37:56;;;;;;;15.40;10.13;;;3.70;99.90;;;;;;5108688;28;20019;-93
2024/01/06 11:40:24;;;;;;;19.45;10.65;;;3.60;99.90;;;;;;5092208;28;20049;-91
2024/01/06 11:43:07;;;;;;;18.42;10.95;;;3.60;99.90;;;;;;5087139;28;20023;-90
2024/01/06 11:45:34;;;;;;;17.58;10.60;;;3.70;99.90;;;;;;5093976;28;20070;-91
2024/01/06 11:48:02;;;;;;;16.33;10.60;;;3.70;99.90;;;;;;5091585;28;20039;-92
2024/01/06 11:50:29;;;;;;;16.48;10.90;;;3.70;99.90;;;;;;5091270;28;20091;-91
2024/01/06 11:52:55;;;;;;;20.42;11.57;;;3.70;99.90;;;;;;5086317;28;20036;-92
2024/01/06 11:55:21;;;;;;;17.70;11.50;;;3.70;99.90;;;;;;5092370;28;20024;-91
2024/01/06 11:57:50;;;;;;;16.20;10.80;;;3.70;99.90;;;;;;5101661;28;20031;-91
2024/01/06 12:00:17;;;;;;;17.08;10.82;;;3.70;99.90;;;;;;5103622;28;20032;-91
2024/01/06 12:02:42;;;;;;;16.75;10.50;;;3.70;99.90;;;;;;5093316;28;23018;-91
2024/01/06 12:05:17;;;;;;;15.60;9.75;;;3.70;99.90;;;;;;5089102;28;20166;-92
2024/01/06 12:07:52;;;;;;;16.55;10.45;;;3.70;99.90;;;;;;5098785;28;20027;-91
2024/01/06 12:10:23;;;;;;;17.95;11.38;;;3.70;99.90;;;;;;5084139;28;20027;-92
2024/01/06 12:12:55;;;;;;;15.60;9.77;;;3.70;99.90;;;;;;5092549;28;20035;-92
2024/01/06 12:15:21;;;;;;;15.38;9.90;;;3.80;99.90;;;;;;5088983;28;20118;-92
2024/01/06 12:17:47;;;;;;;17.33;10.95;;;3.80;99.90;;;;;;5090725;28;20108;-92
2024/01/06 12:20:14;;;;;;;16.27;10.88;;;3.80;99.90;;;;;;5089183;28;20035;-92
2024/01/06 12:22:39;;;;;;;17.15;10.45;;;3.70;99.90;;;;;;5091690;28;20040;-93
2024/01/06 12:25:06;;;;;;;17.50;10.48;;;3.80;99.90;;;;;;5089978;28;20124;-92
2024/01/06 12:27:32;;;;;;;16.30;9.63;;;3.80;99.90;;;;;;5086233;28;20140;-91
2024/01/06 12:29:57;;;;;;;16.13;10.15;;;3.70;99.90;;;;;;5087299;28;20074;-93
2024/01/06 12:32:23;;;;;;;16.73;9.57;;;3.80;99.90;;;;;;5089995;28;20031;-94